createdAt,value
2023-01-11T00:00:18.969Z,96.90
2023-01-11T00:01:18.980Z,92.70
2023-01-11T00:02:18.973Z,119.00
2023-01-11T00:03:18.976Z,122.70
2023-01-11T00:04:19.031Z,126.20
2023-01-11T00:05:18.932Z,136.60
2023-01-11T00:06:18.944Z,125.90
2023-01-11T00:07:18.967Z,133.10
2023-01-11T00:08:18.925Z,156.40
2023-01-11T00:09:18.924Z,140.00
2023-01-11T00:10:18.922Z,136.60
2023-01-11T00:11:18.892Z,136.20
2023-01-11T00:12:18.910Z,133.90
2023-01-11T00:13:18.952Z,162.90
2023-01-11T00:14:18.881Z,165.00
2023-01-11T00:15:18.897Z,167.50
2023-01-11T00:16:18.926Z,164.70
2023-01-11T00:17:18.866Z,172.10
2023-01-11T00:18:18.873Z,163.00
2023-01-11T00:19:18.869Z,174.30
2023-01-11T00:20:18.877Z,180.70
2023-01-11T00:21:18.850Z,175.10
2023-01-11T00:22:18.846Z,161.00
2023-01-11T00:23:18.834Z,157.40
2023-01-11T00:24:18.817Z,150.90
2023-01-11T00:25:18.893Z,130.90
2023-01-11T00:26:18.821Z,143.00
2023-01-11T00:27:18.810Z,135.80
2023-01-11T00:28:18.825Z,129.30
2023-01-11T00:29:18.802Z,143.40
2023-01-11T00:30:18.792Z,149.90
2023-01-11T00:31:18.851Z,168.40
2023-01-11T00:32:18.772Z,154.50
2023-01-11T00:33:18.772Z,164.70
2023-01-11T00:34:18.800Z,162.60
2023-01-11T00:35:18.772Z,171.90
2023-01-11T00:36:18.765Z,160.80
2023-01-11T00:37:18.834Z,157.50
2023-01-11T00:38:18.728Z,145.50
2023-01-11T00:39:18.734Z,160.00
2023-01-11T00:40:18.736Z,150.50
2023-01-11T00:41:18.803Z,136.40
2023-01-11T00:42:18.716Z,136.00
2023-01-11T00:43:18.700Z,145.30
2023-01-11T00:44:18.704Z,160.80
2023-01-11T00:45:18.780Z,147.80
2023-01-11T00:46:18.753Z,154.30
2023-01-11T00:47:18.687Z,154.50
2023-01-11T00:48:18.697Z,167.80
2023-01-11T00:49:18.672Z,152.20
2023-01-11T00:50:18.657Z,184.80
2023-01-11T00:51:19.711Z,175.00
2023-01-11T00:52:18.650Z,167.00
2023-01-11T00:53:18.648Z,165.80
2023-01-11T00:54:18.699Z,164.40
2023-01-11T00:55:18.632Z,154.00
2023-01-11T00:56:18.638Z,147.90
2023-01-11T00:57:18.653Z,148.40
2023-01-11T00:58:18.612Z,135.80
2023-01-11T00:59:18.610Z,149.10
2023-01-11T01:00:18.603Z,132.70
2023-01-11T01:01:18.656Z,144.40
2023-01-11T01:02:18.633Z,149.30
2023-01-11T01:03:18.589Z,153.40
2023-01-11T01:04:18.597Z,153.60
2023-01-11T01:05:18.593Z,154.50
2023-01-11T01:06:18.578Z,141.50
2023-01-11T01:07:18.581Z,161.80
2023-01-11T01:08:18.580Z,132.30
2023-01-11T01:09:18.553Z,157.30
2023-01-11T01:10:18.608Z,161.60
2023-01-11T01:11:18.563Z,160.60
2023-01-11T01:12:18.531Z,163.30
2023-01-11T01:13:18.569Z,163.00
2023-01-11T01:14:18.529Z,169.40
2023-01-11T01:15:18.513Z,155.50
2023-01-11T01:16:18.547Z,151.80
2023-01-11T01:17:18.507Z,146.60
2023-01-11T01:18:18.517Z,144.10
2023-01-11T01:19:18.489Z,170.10
2023-01-11T01:20:18.509Z,152.80
2023-01-11T01:21:18.491Z,169.30
2023-01-11T01:22:18.469Z,155.60
2023-01-11T01:23:18.483Z,149.50
2023-01-11T01:24:18.499Z,158.10
2023-01-11T01:25:18.449Z,165.00
2023-01-11T01:26:18.450Z,147.30
2023-01-11T01:27:18.480Z,158.20
2023-01-11T01:28:18.449Z,147.30
2023-01-11T01:29:18.508Z,151.10
2023-01-11T01:30:18.425Z,146.40
2023-01-11T01:31:18.473Z,134.50
2023-01-11T01:32:18.440Z,147.30
2023-01-11T01:33:18.432Z,141.10
2023-01-11T01:34:18.456Z,143.90
2023-01-11T01:35:18.404Z,142.80
2023-01-11T01:36:18.391Z,143.30
2023-01-11T01:37:18.377Z,152.20
2023-01-11T01:38:18.404Z,138.50
2023-01-11T01:39:18.369Z,117.30
2023-01-11T01:40:18.382Z,123.10
2023-01-11T01:41:18.379Z,146.10
2023-01-11T01:42:18.359Z,122.70
2023-01-11T01:43:18.350Z,135.40
2023-01-11T01:44:18.356Z,122.80
2023-01-11T01:45:18.346Z,140.60
2023-01-11T01:46:18.369Z,119.00
2023-01-11T01:47:18.351Z,131.80
2023-01-11T01:48:18.311Z,123.60
2023-01-11T01:49:18.308Z,136.80
2023-01-11T01:50:18.353Z,140.40
2023-01-11T01:51:18.304Z,122.70
2023-01-11T01:52:18.303Z,125.00
2023-01-11T01:53:18.324Z,124.30
2023-01-11T01:54:18.299Z,127.60
2023-01-11T01:55:18.317Z,116.30
2023-01-11T01:56:18.304Z,124.60
2023-01-11T01:57:18.270Z,139.90
2023-01-11T01:58:18.262Z,148.80
2023-01-11T01:59:18.337Z,132.60
2023-01-11T02:00:18.268Z,122.90
2023-01-11T02:01:18.270Z,132.10
2023-01-11T02:02:18.274Z,126.20
2023-01-11T02:03:18.227Z,128.00
2023-01-11T02:04:18.227Z,117.90
2023-01-11T02:05:18.230Z,115.30
2023-01-11T02:06:18.252Z,122.70
2023-01-11T02:07:18.209Z,136.00
2023-01-11T02:08:18.202Z,136.10
2023-01-11T02:09:18.200Z,141.00
2023-01-11T02:10:18.189Z,133.20
2023-01-11T02:11:18.208Z,119.10
2023-01-11T02:12:18.189Z,132.90
2023-01-11T02:13:18.165Z,120.00
2023-01-11T02:14:18.186Z,132.70
2023-01-11T02:15:18.149Z,130.30
2023-01-11T02:16:18.200Z,130.00
2023-01-11T02:17:18.185Z,125.00
2023-01-11T02:18:18.165Z,125.80
2023-01-11T02:19:18.134Z,128.80
2023-01-11T02:20:18.150Z,125.70
2023-01-11T02:21:18.118Z,134.40
2023-01-11T02:22:18.118Z,139.00
2023-01-11T02:23:18.151Z,122.50
2023-01-11T02:24:18.105Z,138.00
2023-01-11T02:25:18.082Z,136.80
2023-01-11T02:26:19.104Z,140.40
2023-01-11T02:27:18.085Z,139.30
2023-01-11T02:28:18.090Z,136.10
2023-01-11T02:29:18.131Z,132.20
2023-01-11T02:30:18.074Z,142.30
2023-01-11T02:31:19.615Z,146.00
2023-01-11T02:32:18.081Z,131.50
2023-01-11T02:33:18.082Z,138.90
2023-01-11T02:34:19.068Z,134.00
2023-01-11T02:35:18.034Z,138.40
2023-01-11T02:36:18.025Z,127.00
2023-01-11T02:37:18.031Z,129.70
2023-01-11T02:38:18.024Z,138.90
2023-01-11T02:39:18.029Z,129.10
2023-01-11T02:40:18.034Z,132.50
2023-01-11T02:41:17.999Z,132.40
2023-01-11T02:42:18.009Z,131.60
2023-01-11T02:43:18.005Z,126.50
2023-01-11T02:44:18.019Z,121.90
2023-01-11T02:45:17.992Z,119.80
2023-01-11T02:46:18.008Z,130.80
2023-01-11T02:47:17.958Z,124.00
2023-01-11T02:48:17.985Z,124.20
2023-01-11T02:49:17.951Z,129.10
2023-01-11T02:50:17.997Z,135.70
2023-01-11T02:51:17.959Z,131.40
2023-01-11T02:52:17.939Z,133.70
2023-01-11T02:53:17.947Z,130.20
2023-01-11T02:54:17.934Z,135.30
2023-01-11T02:55:17.932Z,129.70
2023-01-11T02:56:17.925Z,120.30
2023-01-11T02:57:17.918Z,126.30
2023-01-11T02:58:17.902Z,138.50
2023-01-11T02:59:17.899Z,139.00
2023-01-11T03:00:17.937Z,132.30
2023-01-11T03:01:17.934Z,132.10
2023-01-11T03:02:17.881Z,128.20
2023-01-11T03:03:17.879Z,130.70
2023-01-11T03:04:17.864Z,140.20
2023-01-11T03:05:17.884Z,125.80
2023-01-11T03:06:17.891Z,129.70
2023-01-11T03:07:17.848Z,126.40
2023-01-11T03:08:17.834Z,134.80
2023-01-11T03:09:17.898Z,132.70
2023-01-11T03:10:17.821Z,136.20
2023-01-11T03:11:17.839Z,131.80
2023-01-11T03:12:17.821Z,128.30
2023-01-11T03:13:17.814Z,133.40
2023-01-11T03:14:17.806Z,145.90
2023-01-11T03:15:17.821Z,134.40
2023-01-11T03:16:18.874Z,130.20
2023-01-11T03:17:17.794Z,134.70
2023-01-11T03:18:17.807Z,131.70
2023-01-11T03:19:17.795Z,140.50
2023-01-11T03:20:17.766Z,130.90
2023-01-11T03:21:17.844Z,138.50
2023-01-11T03:22:17.788Z,126.30
2023-01-11T03:23:17.763Z,133.30
2023-01-11T03:24:17.757Z,124.40
2023-01-11T03:25:17.802Z,125.50
2023-01-11T03:26:17.747Z,134.40
2023-01-11T03:27:17.749Z,130.90
2023-01-11T03:28:17.758Z,132.00
2023-01-11T03:29:17.718Z,141.40
2023-01-11T03:30:17.725Z,133.20
2023-01-11T03:31:17.769Z,123.60
2023-01-11T03:32:17.730Z,131.50
2023-01-11T03:33:17.706Z,137.60
2023-01-11T03:34:17.710Z,134.80
2023-01-11T03:35:17.688Z,126.60
2023-01-11T03:36:17.702Z,134.40
2023-01-11T03:37:17.727Z,124.60
2023-01-11T03:38:17.667Z,127.00
2023-01-11T03:39:17.673Z,139.70
2023-01-11T03:40:17.671Z,129.10
2023-01-11T03:41:17.652Z,124.80
2023-01-11T03:42:17.646Z,125.40
2023-01-11T03:43:18.143Z,120.00
2023-01-11T03:44:18.631Z,123.70
2023-01-11T03:45:17.643Z,120.10
2023-01-11T03:46:17.675Z,122.50
2023-01-11T03:47:17.627Z,118.70
2023-01-11T03:48:17.628Z,112.90
2023-01-11T03:49:17.616Z,120.80
2023-01-11T03:50:17.601Z,129.30
2023-01-11T03:51:17.616Z,124.60
2023-01-11T03:52:17.619Z,122.50
2023-01-11T03:53:17.604Z,122.30
2023-01-11T03:54:17.597Z,122.50
2023-01-11T03:55:17.593Z,130.00
2023-01-11T03:56:17.562Z,113.10
2023-01-11T03:57:17.566Z,115.10
2023-01-11T03:58:17.577Z,130.50
2023-01-11T03:59:17.555Z,128.40
2023-01-11T04:00:17.552Z,126.00
2023-01-11T04:01:17.602Z,117.20
2023-01-11T04:02:17.536Z,129.40
2023-01-11T04:03:17.530Z,126.50
2023-01-11T04:04:17.605Z,135.00
2023-01-11T04:05:17.541Z,126.20
2023-01-11T04:06:17.507Z,128.40
2023-01-11T04:07:17.525Z,131.20
2023-01-11T04:08:17.502Z,117.40
2023-01-11T04:09:17.506Z,127.10
2023-01-11T04:10:17.523Z,132.40
2023-01-11T04:11:17.483Z,132.20
2023-01-11T04:12:17.477Z,119.70
2023-01-11T04:13:17.471Z,119.80
2023-01-11T04:14:17.515Z,124.60
2023-01-11T04:15:17.474Z,133.80
2023-01-11T04:16:17.472Z,127.20
2023-01-11T04:17:17.443Z,127.20
2023-01-11T04:18:17.445Z,123.20
2023-01-11T04:19:17.441Z,129.00
2023-01-11T04:20:17.461Z,133.50
2023-01-11T04:21:17.439Z,118.00
2023-01-11T04:22:17.429Z,128.00
2023-01-11T04:23:17.433Z,121.80
2023-01-11T04:24:17.406Z,125.90
2023-01-11T04:25:17.415Z,126.00
2023-01-11T04:26:17.493Z,130.30
2023-01-11T04:27:17.394Z,136.20
2023-01-11T04:28:17.382Z,132.00
2023-01-11T04:29:17.399Z,133.70
2023-01-11T04:30:17.393Z,119.20
2023-01-11T04:31:17.440Z,115.30
2023-01-11T04:32:17.457Z,124.40
2023-01-11T04:33:17.359Z,134.30
2023-01-11T04:34:17.349Z,127.90
2023-01-11T04:35:17.367Z,134.50
2023-01-11T04:36:17.341Z,135.00
2023-01-11T04:37:17.347Z,130.80
2023-01-11T04:38:17.336Z,139.20
2023-01-11T04:39:17.341Z,130.20
2023-01-11T04:40:17.364Z,133.70
2023-01-11T04:41:17.322Z,147.80
2023-01-11T04:42:17.306Z,126.30
2023-01-11T04:43:17.294Z,132.90
2023-01-11T04:44:17.337Z,131.40
2023-01-11T04:45:17.295Z,141.00
2023-01-11T04:46:17.296Z,127.70
2023-01-11T04:47:17.367Z,122.80
2023-01-11T04:48:17.269Z,115.40
2023-01-11T04:49:17.261Z,129.70
2023-01-11T04:50:17.312Z,128.80
2023-01-11T04:51:17.243Z,129.20
2023-01-11T04:52:17.285Z,133.60
2023-01-11T04:53:17.315Z,125.30
2023-01-11T04:54:17.228Z,116.20
2023-01-11T04:55:17.225Z,131.70
2023-01-11T04:56:17.237Z,116.30
2023-01-11T04:57:17.345Z,126.00
2023-01-11T04:58:17.212Z,133.60
2023-01-11T04:59:17.212Z,123.20
2023-01-11T05:00:17.223Z,131.00
2023-01-11T05:01:17.275Z,108.50
2023-01-11T05:02:17.205Z,123.40
2023-01-11T05:03:17.296Z,107.60
2023-01-11T05:04:17.237Z,112.50
2023-01-11T05:05:17.191Z,112.40
2023-01-11T05:06:17.169Z,123.00
2023-01-11T05:07:17.226Z,90.30
2023-01-11T05:08:17.173Z,95.90
2023-01-11T05:09:17.159Z,106.20
2023-01-11T05:10:17.149Z,110.10
2023-01-11T05:11:17.124Z,112.40
2023-01-11T05:12:17.133Z,94.30
2023-01-11T05:13:17.148Z,103.00
2023-01-11T05:14:17.125Z,105.10
2023-01-11T05:15:17.134Z,101.30
2023-01-11T05:16:17.144Z,103.60
2023-01-11T05:17:17.158Z,113.90
2023-01-11T05:18:17.112Z,104.10
2023-01-11T05:19:17.610Z,109.00
2023-01-11T05:20:17.117Z,102.30
2023-01-11T05:21:17.079Z,103.60
2023-01-11T05:22:17.072Z,105.30
2023-01-11T05:23:17.078Z,107.30
2023-01-11T05:24:18.102Z,89.50
2023-01-11T05:25:17.061Z,96.80
2023-01-11T05:26:17.069Z,107.90
2023-01-11T05:27:17.071Z,108.10
2023-01-11T05:28:17.071Z,109.70
2023-01-11T05:29:17.057Z,111.80
2023-01-11T05:30:17.040Z,91.20
2023-01-11T05:31:17.107Z,92.40
2023-01-11T05:32:17.038Z,95.80
2023-01-11T05:33:17.079Z,115.30
2023-01-11T05:34:17.046Z,106.80
2023-01-11T05:35:17.038Z,97.90
2023-01-11T05:36:17.197Z,105.50
2023-01-11T05:37:16.997Z,104.60
2023-01-11T05:38:17.027Z,101.40
2023-01-11T05:39:16.995Z,105.00
2023-01-11T05:40:17.000Z,105.20
2023-01-11T05:41:17.005Z,112.10
2023-01-11T05:42:16.978Z,101.30
2023-01-11T05:43:16.949Z,96.30
2023-01-11T05:44:16.978Z,120.20
2023-01-11T05:45:16.957Z,101.40
2023-01-11T05:46:17.013Z,124.10
2023-01-11T05:47:16.953Z,121.60
2023-01-11T05:48:16.922Z,104.10
2023-01-11T05:49:16.987Z,97.80
2023-01-11T05:50:16.987Z,91.90
2023-01-11T05:51:16.931Z,93.80
2023-01-11T05:52:16.907Z,95.00
2023-01-11T05:53:16.912Z,86.20
2023-01-11T05:54:16.940Z,101.90
2023-01-11T05:55:16.918Z,102.90
2023-01-11T05:56:16.886Z,96.30
2023-01-11T05:57:16.903Z,97.60
2023-01-11T05:58:16.862Z,104.20
2023-01-11T05:59:16.915Z,99.80
2023-01-11T06:00:16.932Z,106.20
2023-01-11T06:01:16.886Z,105.00
2023-01-11T06:02:16.938Z,102.40
2023-01-11T06:03:16.935Z,102.60
2023-01-11T06:04:16.852Z,97.60
2023-01-11T06:05:16.840Z,100.20
2023-01-11T06:06:16.820Z,106.00
2023-01-11T06:07:16.832Z,102.30
2023-01-11T06:08:16.812Z,95.10
2023-01-11T06:09:16.837Z,106.70
2023-01-11T06:10:16.827Z,97.20
2023-01-11T06:11:16.878Z,93.70
2023-01-11T06:12:16.806Z,105.10
2023-01-11T06:13:16.828Z,86.30
2023-01-11T06:14:16.803Z,85.20
2023-01-11T06:15:16.775Z,93.30
2023-01-11T06:16:16.826Z,89.00
2023-01-11T06:17:16.805Z,93.60
2023-01-11T06:18:16.744Z,97.90
2023-01-11T06:19:16.797Z,103.20
2023-01-11T06:20:16.748Z,96.70
2023-01-11T06:21:16.763Z,87.10
2023-01-11T06:22:16.728Z,85.30
2023-01-11T06:23:17.752Z,81.50
2023-01-11T06:24:16.715Z,90.00
2023-01-11T06:25:16.713Z,89.80
2023-01-11T06:26:16.752Z,90.20
2023-01-11T06:27:16.699Z,95.70
2023-01-11T06:28:16.713Z,98.20
2023-01-11T06:29:16.721Z,98.60
2023-01-11T06:30:16.702Z,90.90
2023-01-11T06:31:17.871Z,94.90
2023-01-11T06:32:17.671Z,95.40
2023-01-11T06:33:16.692Z,91.90
2023-01-11T06:34:16.680Z,86.80
2023-01-11T06:35:16.652Z,94.60
2023-01-11T06:36:16.674Z,103.90
2023-01-11T06:37:16.658Z,95.10
2023-01-11T06:38:16.681Z,88.20
2023-01-11T06:39:16.701Z,88.00
2023-01-11T06:40:16.634Z,87.30
2023-01-11T06:41:16.630Z,88.20
2023-01-11T06:42:16.646Z,80.70
2023-01-11T06:43:16.619Z,72.50
2023-01-11T06:44:16.627Z,74.80
2023-01-11T06:45:16.607Z,61.00
2023-01-11T06:46:16.660Z,67.20
2023-01-11T06:47:16.595Z,55.10
2023-01-11T06:48:16.578Z,56.60
2023-01-11T06:49:16.601Z,47.80
2023-01-11T06:50:16.565Z,42.90
2023-01-11T06:51:16.551Z,43.50
2023-01-11T06:52:16.567Z,39.00
2023-01-11T06:53:16.565Z,30.10
2023-01-11T06:54:16.531Z,38.30
2023-01-11T06:55:16.583Z,37.00
2023-01-11T06:56:16.532Z,34.10
2023-01-11T06:57:16.523Z,32.10
2023-01-11T06:58:16.529Z,28.30
2023-01-11T06:59:16.543Z,28.30
2023-01-11T07:00:16.520Z,29.20
2023-01-11T07:01:16.632Z,29.10
2023-01-11T07:02:16.488Z,24.50
2023-01-11T07:03:16.486Z,26.30
2023-01-11T07:04:16.491Z,24.30
2023-01-11T07:05:18.876Z,26.50
2023-01-11T07:06:17.488Z,27.30
2023-01-11T07:07:16.484Z,27.20
2023-01-11T07:08:16.499Z,26.90
2023-01-11T07:09:16.465Z,21.90
2023-01-11T07:10:16.456Z,26.40
2023-01-11T07:11:16.505Z,21.10
2023-01-11T07:12:16.445Z,19.90
2023-01-11T07:13:16.521Z,23.70
2023-01-11T07:14:16.442Z,21.40
2023-01-11T07:15:16.439Z,22.50
2023-01-11T07:16:16.491Z,21.20
2023-01-11T07:17:16.423Z,21.20
2023-01-11T07:18:17.019Z,20.40
2023-01-11T07:19:16.428Z,22.00
2023-01-11T07:20:16.407Z,19.10
2023-01-11T07:21:16.419Z,19.10
2023-01-11T07:22:16.416Z,28.30
2023-01-11T07:23:16.426Z,22.20
2023-01-11T07:24:16.388Z,25.20
2023-01-11T07:25:16.375Z,16.40
2023-01-11T07:26:16.479Z,17.10
2023-01-11T07:27:16.363Z,14.50
2023-01-11T07:28:16.368Z,14.70
2023-01-11T07:29:16.407Z,10.90
2023-01-11T07:30:16.370Z,15.50
2023-01-11T07:31:17.430Z,12.60
2023-01-11T07:32:16.350Z,10.50
2023-01-11T07:33:16.349Z,9.50
2023-01-11T07:34:16.329Z,18.00
2023-01-11T07:35:16.361Z,10.40
2023-01-11T07:36:16.372Z,9.80
2023-01-11T07:37:28.283Z,10.30
2023-01-11T07:38:17.333Z,14.60
2023-01-11T07:39:16.315Z,10.60
2023-01-11T07:40:16.300Z,9.80
2023-01-11T07:41:16.343Z,10.80
2023-01-11T07:42:16.287Z,11.10
2023-01-11T07:43:16.279Z,12.90
2023-01-11T07:44:16.308Z,8.70
2023-01-11T07:45:16.326Z,10.10
2023-01-11T07:46:16.347Z,8.00
2023-01-11T07:47:16.350Z,9.10
2023-01-11T07:48:16.264Z,7.90
2023-01-11T07:49:16.262Z,9.20
2023-01-11T07:50:16.243Z,10.80
2023-01-11T07:51:16.280Z,7.50
2023-01-11T07:52:16.252Z,9.20
2023-01-11T07:53:16.222Z,10.60
2023-01-11T07:54:16.243Z,9.10
2023-01-11T07:55:16.216Z,9.30
2023-01-11T07:56:16.196Z,7.90
2023-01-11T07:57:17.258Z,9.40
2023-01-11T07:58:16.197Z,7.90
2023-01-11T07:59:16.186Z,7.40
2023-01-11T08:00:16.196Z,8.60
2023-01-11T08:01:16.199Z,8.00
2023-01-11T08:02:16.250Z,7.40
2023-01-11T08:03:16.432Z,7.50
2023-01-11T08:04:16.194Z,7.70
2023-01-11T08:05:16.181Z,6.60
2023-01-11T08:06:16.181Z,10.00
2023-01-11T08:07:16.148Z,7.70
2023-01-11T08:08:16.145Z,8.30
2023-01-11T08:09:16.126Z,8.90
2023-01-11T08:10:16.130Z,6.80
2023-01-11T08:11:16.114Z,8.80
2023-01-11T08:12:16.109Z,7.00
2023-01-11T08:13:16.133Z,7.60
2023-01-11T08:14:16.159Z,7.20
2023-01-11T08:15:16.123Z,7.40
2023-01-11T08:16:16.157Z,9.70
2023-01-11T08:17:16.098Z,13.30
2023-01-11T08:18:16.098Z,26.50
2023-01-11T08:19:16.074Z,36.00
2023-01-11T08:20:16.091Z,56.60
2023-01-11T08:21:16.069Z,26.60
2023-01-11T08:22:16.068Z,15.90
2023-01-11T08:23:16.076Z,27.30
2023-01-11T08:24:16.060Z,25.40
2023-01-11T08:25:16.035Z,25.80
2023-01-11T08:26:16.038Z,8.80
2023-01-11T08:27:16.019Z,33.70
2023-01-11T08:28:16.023Z,23.30
2023-01-11T08:29:16.014Z,13.60
2023-01-11T08:30:16.028Z,24.50
2023-01-11T08:31:16.061Z,17.30
2023-01-11T08:32:16.014Z,20.80
2023-01-11T08:33:16.002Z,24.60
2023-01-11T08:34:16.023Z,15.20
2023-01-11T08:35:15.985Z,29.70
2023-01-11T08:36:15.974Z,32.10
2023-01-11T08:37:17.002Z,40.80
2023-01-11T08:38:15.974Z,34.00
2023-01-11T08:39:15.960Z,12.30
2023-01-11T08:40:15.979Z,23.70
2023-01-11T08:41:15.960Z,23.40
2023-01-11T08:42:15.961Z,27.70
2023-01-11T08:43:15.955Z,20.50
2023-01-11T08:44:22.360Z,20.60
2023-01-11T08:45:16.919Z,21.00
2023-01-11T08:46:16.018Z,28.70
2023-01-11T08:47:15.952Z,31.20
2023-01-11T08:48:15.927Z,16.70
2023-01-11T08:49:15.939Z,16.70
2023-01-11T08:50:15.918Z,13.00
2023-01-11T08:51:15.915Z,9.60
2023-01-11T08:52:15.911Z,6.50
2023-01-11T08:53:15.895Z,9.20
2023-01-11T08:54:15.906Z,6.10
2023-01-11T08:55:15.896Z,5.10
2023-01-11T08:56:15.861Z,6.80
2023-01-11T08:57:15.858Z,5.80
2023-01-11T08:58:15.876Z,4.40
2023-01-11T08:59:15.858Z,4.90
2023-01-11T09:00:15.846Z,5.00
2023-01-11T09:01:15.895Z,5.60
2023-01-11T09:02:15.847Z,6.10
2023-01-11T09:03:15.827Z,7.00
2023-01-11T09:04:24.705Z,8.50
2023-01-11T09:05:18.457Z,6.30
2023-01-11T09:06:16.819Z,4.90
2023-01-11T09:07:15.804Z,4.90
2023-01-11T09:08:15.830Z,4.70
2023-01-11T09:09:15.880Z,6.50
2023-01-11T09:10:15.843Z,6.30
2023-01-11T09:11:16.785Z,6.60
2023-01-11T09:12:15.805Z,6.70
2023-01-11T09:13:15.780Z,6.30
2023-01-11T09:14:15.764Z,6.00
2023-01-11T09:15:15.781Z,5.70
2023-01-11T09:16:15.772Z,6.30
2023-01-11T09:17:15.744Z,7.40
2023-01-11T09:18:15.748Z,7.40
2023-01-11T09:19:15.748Z,8.40
2023-01-11T09:20:15.761Z,7.50
2023-01-11T09:21:15.743Z,12.70
2023-01-11T09:22:15.744Z,8.10
2023-01-11T09:23:15.734Z,8.10
2023-01-11T09:24:15.715Z,5.90
2023-01-11T09:25:15.727Z,9.80
2023-01-11T09:26:15.808Z,11.00
2023-01-11T09:27:15.718Z,11.80
2023-01-11T09:28:15.691Z,8.50
2023-01-11T09:29:15.741Z,6.10
2023-01-11T09:30:15.703Z,9.90
2023-01-11T09:31:15.705Z,8.20
2023-01-11T09:32:15.668Z,7.30
2023-01-11T09:33:15.664Z,23.30
2023-01-11T09:34:15.666Z,8.60
2023-01-11T09:35:15.674Z,9.00
2023-01-11T09:36:15.663Z,6.90
2023-01-11T09:37:15.638Z,7.00
2023-01-11T09:38:15.636Z,9.40
2023-01-11T09:39:15.639Z,10.90
2023-01-11T09:40:15.656Z,8.50
2023-01-11T09:41:15.636Z,9.00
2023-01-11T09:42:15.649Z,9.10
2023-01-11T09:43:15.609Z,7.50
2023-01-11T09:44:15.626Z,9.40
2023-01-11T09:45:15.627Z,6.80
2023-01-11T09:46:15.677Z,11.50
2023-01-11T09:47:15.619Z,7.60
2023-01-11T09:48:15.596Z,7.00
2023-01-11T09:49:15.597Z,7.70
2023-01-11T09:50:15.575Z,7.40
2023-01-11T09:51:15.614Z,7.90
2023-01-11T09:52:15.603Z,6.40
2023-01-11T09:53:15.541Z,7.60
2023-01-11T09:54:15.542Z,7.60
2023-01-11T09:55:15.541Z,7.50
2023-01-11T09:56:15.537Z,7.70
2023-01-11T09:57:15.564Z,7.60
2023-01-11T09:58:16.571Z,6.30
2023-01-11T09:59:15.511Z,6.60
2023-01-11T10:00:15.552Z,5.30
2023-01-11T10:01:15.635Z,6.70
2023-01-11T10:02:18.014Z,5.00
2023-01-11T10:03:15.494Z,6.30
2023-01-11T10:04:15.502Z,5.90
2023-01-11T10:05:15.511Z,6.10
2023-01-11T10:06:15.474Z,6.00
2023-01-11T10:07:15.465Z,7.60
2023-01-11T10:18:25.683Z,6.40
2023-01-11T10:18:31.449Z,9.40
2023-01-11T10:18:33.752Z,5.60
2023-01-11T10:18:37.347Z,6.20
2023-01-11T10:18:42.707Z,5.90
2023-01-11T10:19:36.494Z,5.30
2023-01-11T10:20:17.498Z,6.20
2023-01-11T10:21:15.396Z,7.20
2023-01-11T10:22:15.386Z,6.70
2023-01-11T10:23:15.380Z,8.10
2023-01-11T10:24:15.388Z,7.10
2023-01-11T10:25:15.349Z,8.80
2023-01-11T10:26:15.344Z,8.30
2023-01-11T10:27:15.408Z,9.10
2023-01-11T10:28:15.404Z,9.60
2023-01-11T10:29:16.016Z,7.70
2023-01-11T10:30:15.328Z,7.40
2023-01-11T10:31:15.373Z,7.00
2023-01-11T10:32:15.381Z,5.80
2023-01-11T10:33:15.306Z,7.90
2023-01-11T10:34:15.325Z,7.20
2023-01-11T10:35:15.331Z,8.70
2023-01-11T10:36:15.299Z,8.00
2023-01-11T10:37:15.312Z,9.50
2023-01-11T10:38:15.267Z,7.80
2023-01-11T10:39:15.254Z,7.20
2023-01-11T10:40:15.319Z,8.30
2023-01-11T10:41:15.249Z,8.30
2023-01-11T10:42:15.246Z,8.00
2023-01-11T10:43:15.264Z,7.60
2023-01-11T10:44:15.225Z,9.00
2023-01-11T10:45:16.272Z,7.60
2023-01-11T10:46:15.217Z,8.10
2023-01-11T10:47:15.208Z,8.10
2023-01-11T10:48:15.205Z,7.70
2023-01-11T10:49:15.202Z,7.40
2023-01-11T10:50:15.210Z,7.50
2023-01-11T10:51:15.206Z,8.00
2023-01-11T10:52:15.239Z,5.80
2023-01-11T10:53:15.215Z,7.10
2023-01-11T10:54:15.180Z,7.50
2023-01-11T10:55:15.183Z,6.10
2023-01-11T10:56:15.194Z,6.20
2023-01-11T10:57:15.156Z,5.60
2023-01-11T10:58:15.163Z,5.20
2023-01-11T10:59:15.149Z,5.60
2023-01-11T11:00:15.131Z,5.90
2023-01-11T11:01:15.177Z,4.50
2023-01-11T11:02:15.286Z,5.80
2023-01-11T11:03:15.128Z,6.00
2023-01-11T11:04:15.141Z,6.90
2023-01-11T11:05:15.109Z,5.70
2023-01-11T11:06:15.103Z,4.50
2023-01-11T11:07:15.153Z,4.20
2023-01-11T11:08:15.093Z,4.30
2023-01-11T11:09:15.092Z,4.20
2023-01-11T11:10:15.076Z,4.30
2023-01-11T11:11:15.070Z,4.10
2023-01-11T11:12:15.075Z,3.70
2023-01-11T11:13:15.070Z,4.00
2023-01-11T11:14:15.054Z,4.90
2023-01-11T11:15:15.087Z,4.40
2023-01-11T11:16:15.147Z,4.80
2023-01-11T11:17:15.065Z,5.30
2023-01-11T11:18:15.044Z,4.90
2023-01-11T11:19:15.033Z,4.60
2023-01-11T11:20:15.002Z,4.70
2023-01-11T11:21:15.004Z,4.70
2023-01-11T11:22:15.043Z,4.80
2023-01-11T11:23:15.047Z,4.60
2023-01-11T11:24:14.976Z,5.20
2023-01-11T11:25:14.991Z,6.20
2023-01-11T11:26:14.977Z,5.70
2023-01-11T11:27:15.023Z,5.50
2023-01-11T11:28:14.946Z,5.00
2023-01-11T11:29:14.956Z,5.20
2023-01-11T11:30:14.945Z,5.50
2023-01-11T11:31:14.986Z,4.70
2023-01-11T11:32:14.939Z,5.40
2023-01-11T11:33:15.011Z,4.50
2023-01-11T11:34:14.925Z,4.90
2023-01-11T11:35:14.906Z,4.30
2023-01-11T11:36:14.895Z,4.60
2023-01-11T11:37:14.894Z,5.20
2023-01-11T11:38:14.921Z,6.10
2023-01-11T11:39:14.885Z,5.50
2023-01-11T11:40:14.869Z,6.40
2023-01-11T11:41:15.512Z,5.60
2023-01-11T11:42:14.868Z,6.00
2023-01-11T11:43:14.890Z,7.10
2023-01-11T11:44:14.891Z,5.00
2023-01-11T11:45:14.856Z,6.60
2023-01-11T11:46:19.380Z,5.60
2023-01-11T11:47:15.828Z,5.70
2023-01-11T11:48:14.868Z,6.50
2023-01-11T11:49:14.820Z,6.00
2023-01-11T11:50:15.947Z,6.20
2023-01-11T11:51:14.811Z,8.20
2023-01-11T11:52:14.806Z,5.80
2023-01-11T11:53:14.841Z,9.60
2023-01-11T11:54:14.800Z,6.40
2023-01-11T11:55:14.818Z,5.30
2023-01-11T11:56:14.775Z,6.30
2023-01-11T11:57:14.764Z,5.40
2023-01-11T11:58:14.779Z,5.80
2023-01-11T11:59:14.766Z,5.20
2023-01-11T12:00:14.744Z,5.00
2023-01-11T12:01:14.805Z,4.80
2023-01-11T12:02:14.791Z,5.60
2023-01-11T12:03:14.727Z,5.00
2023-01-11T12:04:14.717Z,5.90
2023-01-11T12:05:14.827Z,5.90
2023-01-11T12:06:14.708Z,4.90
2023-01-11T12:07:14.712Z,4.70
2023-01-11T12:08:14.680Z,4.80
2023-01-11T12:09:14.675Z,4.50
2023-01-11T12:10:14.739Z,4.80
2023-01-11T12:11:14.672Z,4.70
2023-01-11T12:12:14.691Z,8.50
2023-01-11T12:13:14.675Z,6.20
2023-01-11T12:14:14.672Z,5.20
2023-01-11T12:15:14.634Z,5.90
2023-01-11T12:16:14.703Z,5.40
2023-01-11T12:17:14.657Z,4.90
2023-01-11T12:18:15.494Z,4.50
2023-01-11T12:19:15.645Z,5.40
2023-01-11T12:20:14.684Z,4.40
2023-01-11T12:21:14.623Z,5.30
2023-01-11T12:22:14.618Z,4.60
2023-01-11T12:23:14.599Z,5.30
2023-01-11T12:24:14.620Z,18.00
2023-01-11T12:25:14.583Z,11.20
2023-01-11T12:26:14.663Z,14.10
2023-01-11T12:27:14.621Z,15.60
2023-01-11T12:28:14.583Z,14.70
2023-01-11T12:29:14.566Z,14.40
2023-01-11T12:30:14.590Z,7.80
2023-01-11T12:31:14.630Z,7.30
2023-01-11T12:32:14.524Z,7.50
2023-01-11T12:33:14.533Z,11.10
2023-01-11T12:34:14.531Z,16.80
2023-01-11T12:35:14.533Z,14.60
2023-01-11T12:36:14.539Z,17.80
2023-01-11T12:37:14.515Z,16.00
2023-01-11T12:38:14.486Z,7.50
2023-01-11T12:39:14.502Z,14.50
2023-01-11T12:40:14.596Z,14.30
2023-01-11T12:41:14.508Z,14.60
2023-01-11T12:42:14.474Z,11.00
2023-01-11T12:43:14.445Z,23.50
2023-01-11T12:44:14.490Z,58.40
2023-01-11T12:45:14.446Z,8.00
2023-01-11T12:46:14.576Z,57.50
2023-01-11T12:47:16.164Z,81.60
2023-01-11T12:48:14.417Z,44.00
2023-01-11T12:49:14.421Z,14.80
2023-01-11T12:50:14.554Z,41.40
2023-01-11T12:51:14.413Z,26.70
2023-01-11T12:52:14.410Z,31.30
2023-01-11T12:53:14.415Z,6.80
2023-01-11T12:54:14.380Z,4.00
2023-01-11T12:55:14.378Z,26.60